createdAt,value
2023-09-30T00:03:53.272Z,13.67
2023-09-30T00:08:57.459Z,13.60
2023-09-30T00:14:01.714Z,13.58
2023-09-30T00:19:04.787Z,13.46
2023-09-30T00:24:08.114Z,13.38
2023-09-30T00:29:12.277Z,13.48
2023-09-30T00:34:15.073Z,13.48
2023-09-30T00:39:17.912Z,13.50
2023-09-30T00:44:22.658Z,13.51
2023-09-30T00:49:25.914Z,13.37
2023-09-30T00:54:30.168Z,13.30
2023-09-30T00:59:34.703Z,13.29
2023-09-30T01:04:37.775Z,13.31
2023-09-30T01:09:40.739Z,13.21
2023-09-30T01:14:45.568Z,13.24
2023-09-30T01:19:48.367Z,13.29
2023-09-30T01:24:52.552Z,13.17
2023-09-30T01:29:55.334Z,13.19
2023-09-30T01:34:58.142Z,13.11
2023-09-30T01:40:04.168Z,13.06
2023-09-30T01:45:08.112Z,13.03
2023-09-30T01:50:11.487Z,13.01
2023-09-30T01:55:15.838Z,13.00
2023-09-30T02:00:19.158Z,12.98
2023-09-30T02:05:21.974Z,12.93
2023-09-30T02:10:26.120Z,12.76
2023-09-30T02:15:29.070Z,12.82
2023-09-30T02:20:32.048Z,12.79
2023-09-30T02:25:36.197Z,12.79
2023-09-30T02:30:39.037Z,12.71
2023-09-30T02:35:46.411Z,12.55
2023-09-30T02:40:51.072Z,12.57
2023-09-30T02:45:53.908Z,12.66
2023-09-30T02:50:56.835Z,12.67
2023-09-30T02:56:01.556Z,12.57
2023-09-30T03:01:04.572Z,12.66
2023-09-30T03:06:07.437Z,12.66
2023-09-30T03:11:11.717Z,12.60
2023-09-30T03:16:14.671Z,12.54
2023-09-30T03:21:17.611Z,12.49
2023-09-30T03:26:21.776Z,12.51
2023-09-30T03:31:24.635Z,12.45
2023-09-30T03:36:27.449Z,12.41
2023-09-30T03:41:32.484Z,12.32
2023-09-30T03:46:35.347Z,12.30
2023-09-30T03:51:38.383Z,12.31
2023-09-30T03:56:42.548Z,12.23
2023-09-30T04:01:45.421Z,12.23
2023-09-30T04:06:48.615Z,12.16
2023-09-30T04:11:52.752Z,12.12
2023-09-30T04:16:56.235Z,12.16
2023-09-30T04:21:59.077Z,12.13
2023-09-30T04:27:07.071Z,12.12
2023-09-30T04:32:10.845Z,12.09
2023-09-30T04:37:14.661Z,12.08
2023-09-30T04:42:18.816Z,12.02
2023-09-30T04:47:21.704Z,11.94
2023-09-30T04:52:28.036Z,11.93
2023-09-30T04:57:32.782Z,11.86
2023-09-30T05:02:35.766Z,11.81
2023-09-30T05:07:38.760Z,11.85
2023-09-30T05:12:47.435Z,11.84
2023-09-30T05:17:51.109Z,11.83
2023-09-30T05:22:53.884Z,11.72
2023-09-30T05:27:58.025Z,11.73
2023-09-30T05:33:00.923Z,11.76
2023-09-30T05:38:05.061Z,11.67
2023-09-30T05:43:09.173Z,11.74
2023-09-30T05:48:12.057Z,11.65
2023-09-30T05:53:15.131Z,11.72
2023-09-30T05:58:19.294Z,11.66
2023-09-30T06:03:22.798Z,11.63
2023-09-30T06:08:25.648Z,11.64
2023-09-30T06:13:32.462Z,11.62
2023-09-30T06:18:35.685Z,11.66
2023-09-30T06:23:38.451Z,11.79
2023-09-30T06:28:42.786Z,11.84
2023-09-30T06:33:45.679Z,11.92
2023-09-30T06:38:51.472Z,11.96
2023-09-30T06:43:55.747Z,12.03
2023-09-30T06:48:58.818Z,12.13
2023-09-30T06:54:01.745Z,12.31
2023-09-30T06:59:07.500Z,12.36
2023-09-30T07:04:12.008Z,12.46
2023-09-30T07:09:14.898Z,12.58
2023-09-30T07:14:19.888Z,12.69
2023-09-30T07:19:22.639Z,12.76
2023-09-30T07:24:26.587Z,12.82
2023-09-30T07:29:30.851Z,13.08
2023-09-30T07:34:33.921Z,13.18
2023-09-30T07:39:37.430Z,13.38
2023-09-30T07:44:41.564Z,13.44
2023-09-30T07:49:44.359Z,13.65
2023-09-30T07:54:47.234Z,13.79
2023-09-30T07:59:51.387Z,13.85
2023-09-30T08:04:54.436Z,13.83
2023-09-30T08:09:57.286Z,13.79
2023-09-30T08:15:01.642Z,14.08
2023-09-30T08:20:05.576Z,14.16
2023-09-30T08:25:09.612Z,14.50
2023-09-30T08:30:13.975Z,14.65
2023-09-30T08:35:16.826Z,14.80
2023-09-30T08:40:22.516Z,14.77
2023-09-30T08:45:26.699Z,14.54
2023-09-30T08:50:29.987Z,14.50
2023-09-30T08:55:35.409Z,14.55
2023-09-30T09:00:40.652Z,14.38
2023-09-30T09:05:43.420Z,14.71
2023-09-30T09:10:56.941Z,15.10
2023-09-30T09:16:10.867Z,15.22
2023-09-30T09:21:14.380Z,15.52
2023-09-30T09:26:26.186Z,15.49
2023-09-30T09:31:31.883Z,15.72
2023-09-30T09:36:41.427Z,15.65
2023-09-30T09:41:53.856Z,16.00
2023-09-30T09:47:00.187Z,15.94
2023-09-30T09:52:02.909Z,16.06
2023-09-30T09:57:07.117Z,16.28
2023-09-30T10:02:15.584Z,16.03
2023-09-30T10:07:22.677Z,16.73
2023-09-30T10:12:25.849Z,16.91
2023-09-30T10:18:00.213Z,16.71
2023-09-30T10:23:26.190Z,16.58
2023-09-30T10:28:40.098Z,16.39
2023-09-30T10:34:20.678Z,16.71
2023-09-30T10:39:59.327Z,16.63
2023-09-30T10:45:02.230Z,17.08
2023-09-30T10:50:06.316Z,16.55
2023-09-30T10:55:11.226Z,16.99
2023-09-30T11:00:17.418Z,16.43
2023-09-30T11:05:32.062Z,16.91
2023-09-30T11:10:40.327Z,16.46
2023-09-30T11:15:43.141Z,16.81
2023-09-30T11:20:46.772Z,17.06
2023-09-30T11:25:51.475Z,17.32
2023-09-30T11:30:57.871Z,17.72
2023-09-30T11:36:03.182Z,17.68
2023-09-30T11:41:08.037Z,17.87
2023-09-30T11:46:12.136Z,17.83
2023-09-30T11:51:15.024Z,17.46
2023-09-30T11:56:19.778Z,18.13
2023-09-30T12:01:23.128Z,18.28
2023-09-30T12:06:26.247Z,18.04
2023-09-30T12:11:30.520Z,18.39
2023-09-30T12:16:33.370Z,18.28
2023-09-30T12:21:37.404Z,18.36
2023-09-30T12:26:42.421Z,18.69
2023-09-30T12:31:53.107Z,18.76
2023-09-30T12:36:58.125Z,19.05
2023-09-30T12:42:10.048Z,18.61
2023-09-30T12:47:13.152Z,18.11
2023-09-30T12:52:16.014Z,18.46
2023-09-30T12:57:20.334Z,19.00
2023-09-30T13:02:23.131Z,19.01
2023-09-30T13:07:26.319Z,19.11
2023-09-30T13:12:30.469Z,18.70
2023-09-30T13:17:33.279Z,18.84
2023-09-30T13:22:37.539Z,18.76
2023-09-30T13:27:41.890Z,18.72
2023-09-30T13:32:45.385Z,18.62
2023-09-30T13:37:48.562Z,18.55
2023-09-30T13:42:53.291Z,18.86
2023-09-30T13:47:58.154Z,18.67
2023-09-30T13:53:02.265Z,18.58
2023-09-30T13:58:06.617Z,18.86
2023-09-30T14:03:09.494Z,18.75
2023-09-30T14:08:12.324Z,18.56
2023-09-30T14:13:16.769Z,18.57
2023-09-30T14:18:19.571Z,18.24
2023-09-30T14:23:22.379Z,18.30
2023-09-30T14:28:26.526Z,18.26
2023-09-30T14:33:29.432Z,18.48
2023-09-30T14:38:32.802Z,18.28
2023-09-30T14:43:37.187Z,18.11
2023-09-30T14:48:41.337Z,18.19
2023-09-30T14:53:44.161Z,18.08
2023-09-30T14:58:48.446Z,18.11
2023-09-30T15:03:51.392Z,18.07
2023-09-30T15:08:54.289Z,17.97
2023-09-30T15:13:58.429Z,18.02
2023-09-30T15:19:01.670Z,17.96
2023-09-30T15:24:05.343Z,17.92
2023-09-30T15:29:09.559Z,17.82
2023-09-30T15:34:13.985Z,17.79
2023-09-30T15:39:17.050Z,17.80
2023-09-30T15:44:21.266Z,17.68
2023-09-30T15:49:24.090Z,17.67
2023-09-30T15:54:26.882Z,17.64
2023-09-30T15:59:31.122Z,17.59
2023-09-30T16:04:34.072Z,17.42
2023-09-30T16:09:36.952Z,17.37
2023-09-30T16:14:41.134Z,17.19
2023-09-30T16:19:43.931Z,17.05
2023-09-30T16:24:46.718Z,16.93
2023-09-30T16:29:51.147Z,16.80
2023-09-30T16:34:53.875Z,16.72
2023-09-30T16:39:56.697Z,16.62
2023-09-30T16:45:01.114Z,16.63
2023-09-30T16:50:05.099Z,16.48
2023-09-30T16:55:09.524Z,16.40
2023-09-30T17:00:16.147Z,16.16
2023-09-30T17:05:19.752Z,16.16
2023-09-30T17:10:22.583Z,16.04
2023-09-30T17:15:26.731Z,15.85
2023-09-30T17:20:30.306Z,15.62
2023-09-30T17:25:33.228Z,15.64
2023-09-30T17:30:42.328Z,15.60
2023-09-30T17:35:46.256Z,15.45
2023-09-30T17:40:49.387Z,15.41
2023-09-30T17:45:53.636Z,15.34
2023-09-30T17:50:56.485Z,15.27
2023-09-30T17:55:59.262Z,15.21
2023-09-30T18:01:03.515Z,15.23
2023-09-30T18:06:07.908Z,15.19
2023-09-30T18:11:10.878Z,15.08
2023-09-30T18:16:15.504Z,15.07
2023-09-30T18:21:18.463Z,15.09
2023-09-30T18:26:21.976Z,15.04
2023-09-30T18:31:28.086Z,14.96
2023-09-30T18:36:31.432Z,14.97
2023-09-30T18:41:34.686Z,14.91
2023-09-30T18:46:39.276Z,14.95
2023-09-30T18:51:42.237Z,14.83
2023-09-30T18:56:45.229Z,14.77
2023-09-30T19:01:49.901Z,14.69
2023-09-30T19:06:52.810Z,14.57
2023-09-30T19:11:55.611Z,14.46
2023-09-30T19:17:00.166Z,14.55
2023-09-30T19:22:03.154Z,14.56
2023-09-30T19:27:05.934Z,14.59
2023-09-30T19:32:10.827Z,14.49
2023-09-30T19:37:14.593Z,14.41
2023-09-30T19:42:17.952Z,14.40
2023-09-30T19:47:22.634Z,14.40
2023-09-30T19:52:29.840Z,14.36
2023-09-30T19:57:33.264Z,14.39
2023-09-30T20:02:37.882Z,14.30
2023-09-30T20:07:41.379Z,14.26
2023-09-30T20:12:44.740Z,14.28
2023-09-30T20:17:50.767Z,14.29
2023-09-30T20:22:54.142Z,14.43
2023-09-30T20:27:59.768Z,14.28
2023-09-30T20:33:04.332Z,14.34
2023-09-30T20:38:07.133Z,14.23
2023-09-30T20:43:10.123Z,14.12
2023-09-30T20:48:14.334Z,14.17
2023-09-30T20:53:17.091Z,14.05
2023-09-30T20:58:19.814Z,14.08
2023-09-30T21:03:24.042Z,14.04
2023-09-30T21:08:27.068Z,14.11
2023-09-30T21:13:29.800Z,14.03
2023-09-30T21:18:34.461Z,13.96
2023-09-30T21:23:37.212Z,14.05
2023-09-30T21:28:43.676Z,14.01
2023-09-30T21:33:47.995Z,13.89
2023-09-30T21:38:51.059Z,13.90
2023-09-30T21:43:53.837Z,13.87
2023-09-30T21:48:58.199Z,13.87
2023-09-30T21:54:01.838Z,13.76
2023-09-30T21:59:04.637Z,13.81
2023-09-30T22:04:10.327Z,13.79
2023-09-30T22:09:13.392Z,13.78
2023-09-30T22:14:16.466Z,13.61
2023-09-30T22:19:22.863Z,13.63
2023-09-30T22:24:25.668Z,13.58
2023-09-30T22:29:28.469Z,13.57
2023-09-30T22:34:32.602Z,13.47
2023-09-30T22:39:35.595Z,13.45
2023-09-30T22:44:38.361Z,13.41
2023-09-30T22:49:42.542Z,13.40
2023-09-30T22:54:45.406Z,13.40
2023-09-30T22:59:48.183Z,13.27
2023-09-30T23:04:52.305Z,13.26
2023-09-30T23:09:55.094Z,13.17
2023-09-30T23:14:57.913Z,13.20
2023-09-30T23:20:05.266Z,13.24
2023-09-30T23:25:12.513Z,13.26
2023-09-30T23:30:16.979Z,13.32
2023-09-30T23:35:22.479Z,13.30
2023-09-30T23:40:25.702Z,13.21
2023-09-30T23:45:31.737Z,13.26
2023-09-30T23:50:36.210Z,13.24
2023-09-30T23:55:39.472Z,13.33
